Time;durP1;ratioP1;P1;durP2;ratioP2;P2;SDS_P1;SDS_P2;PMS_P1;PMS_P2;Temp;Humidity;BMP_temperature;BMP_pressure;BME280_temperature;BME280_humidity;BME280_pressure;Samples;Min_cycle;Max_cycle;Signal;HPM_P1;HPM_P2
2021/03/01 00:00:20;;;;;;;36.28;19.90;;;5.20;99.90;;;;;;5103514;28;20105;-83
2021/03/01 00:02:50;;;;;;;37.42;21.80;;;5.20;99.90;;;;;;5103289;28;20050;-83
2021/03/01 00:08:23;;;;;;;36.50;20.38;;;5.30;99.90;;;;;;5093258;28;20595;-83
2021/03/01 00:13:54;;;;;;;33.20;20.77;;;5.20;99.90;;;;;;5101551;28;20055;-83
2021/03/01 00:16:44;;;;;;;32.08;19.60;;;5.20;99.90;;;;;;5103124;28;20107;-83
2021/03/01 00:19:15;;;;;;;32.92;19.95;;;5.20;99.90;;;;;;5103880;28;20080;-83
2021/03/01 00:21:50;;;;;;;34.30;20.65;;;5.20;99.90;;;;;;5103385;28;20078;-84
2021/03/01 00:24:30;;;;;;;35.00;20.60;;;5.20;99.90;;;;;;5102475;28;20055;-82
2021/03/01 00:26:56;;;;;;;31.38;20.02;;;5.20;99.90;;;;;;5102218;28;20086;-83
2021/03/01 00:29:26;;;;;;;33.55;20.70;;;5.20;99.90;;;;;;5102762;28;20052;-83
2021/03/01 00:31:52;;;;;;;33.25;19.63;;;5.20;99.90;;;;;;5103565;28;20052;-84
2021/03/01 00:34:21;;;;;;;29.65;18.85;;;5.10;99.90;;;;;;5103163;28;20047;-83
2021/03/01 00:36:48;;;;;;;32.35;18.98;;;5.10;99.90;;;;;;5102603;28;20303;-83
2021/03/01 00:39:14;;;;;;;29.45;18.60;;;5.10;99.90;;;;;;5102842;28;20079;-84
2021/03/01 00:41:46;;;;;;;30.63;19.33;;;5.00;99.90;;;;;;5102989;28;20068;-84
2021/03/01 00:44:12;;;;;;;35.38;21.35;;;4.90;99.90;;;;;;5103612;28;20048;-84
2021/03/01 00:50:03;;;;;;;30.83;19.48;;;4.80;99.90;;;;;;5088975;28;20060;-82
2021/03/01 00:52:29;;;;;;;35.03;19.98;;;4.80;99.90;;;;;;5101947;28;20091;-81
2021/03/01 00:54:56;;;;;;;32.65;19.10;;;4.70;99.90;;;;;;5107390;28;20052;-81
2021/03/01 00:57:23;;;;;;;35.22;19.77;;;4.80;99.90;;;;;;5109445;28;20048;-83
2021/03/01 00:59:49;;;;;;;30.73;20.42;;;4.80;99.90;;;;;;5109027;28;20055;-83
2021/03/01 01:02:20;;;;;;;31.10;18.00;;;4.80;99.90;;;;;;5103310;28;20093;-84
2021/03/01 01:04:49;;;;;;;30.42;18.17;;;4.80;99.90;;;;;;5101706;28;20059;-81
2021/03/01 01:07:16;;;;;;;28.80;18.20;;;4.80;99.90;;;;;;5101239;28;20044;-81
2021/03/01 01:09:47;;;;;;;30.92;19.15;;;4.70;99.90;;;;;;5101279;28;20052;-81
2021/03/01 01:12:16;;;;;;;28.00;18.17;;;4.70;99.90;;;;;;5100531;28;20502;-80
2021/03/01 01:14:53;;;;;;;26.63;16.75;;;4.60;99.90;;;;;;5101805;28;20047;-80
2021/03/01 01:17:26;;;;;;;31.85;18.70;;;4.60;99.90;;;;;;5101649;28;20048;-80
2021/03/01 01:19:53;;;;;;;;;;;4.50;99.90;;;;;;5105122;28;20051;-83
2021/03/01 01:22:30;;;;;;;31.67;18.15;;;4.40;99.90;;;;;;5104872;28;20376;-81
2021/03/01 01:24:56;;;;;;;28.70;17.27;;;4.40;99.90;;;;;;5105795;28;20139;-81
2021/03/01 01:27:23;;;;;;;33.83;18.73;;;4.40;99.90;;;;;;5106101;28;20105;-81
2021/03/01 01:29:50;;;;;;;28.88;17.70;;;4.40;99.90;;;;;;5106953;28;20051;-80
2021/03/01 01:32:16;;;;;;;31.50;16.88;;;4.40;99.90;;;;;;5106237;28;20056;-80
2021/03/01 01:34:43;;;;;;;30.38;18.85;;;4.40;99.90;;;;;;5107482;28;20517;-83
2021/03/01 01:37:19;;;;;;;28.38;18.02;;;4.40;99.90;;;;;;5108607;28;20048;-82
2021/03/01 01:39:54;;;;;;;32.28;18.75;;;4.30;99.90;;;;;;5107406;28;20048;-82
2021/03/01 01:42:22;;;;;;;31.63;19.23;;;4.20;99.90;;;;;;5108930;28;20047;-81
2021/03/01 01:45:02;;;;;;;31.17;18.65;;;4.10;99.90;;;;;;5108997;28;20051;-80
2021/03/01 01:47:42;;;;;;;32.03;18.83;;;4.00;99.90;;;;;;5110059;28;20055;-82
2021/03/01 01:50:19;;;;;;;34.78;20.25;;;4.00;99.90;;;;;;5103911;28;20059;-80
2021/03/01 01:52:53;;;;;;;30.75;18.52;;;4.00;99.90;;;;;;5103268;28;20048;-82
2021/03/01 01:55:24;;;;;;;35.70;20.45;;;3.90;99.90;;;;;;5105902;28;20043;-81
2021/03/01 01:57:51;;;;;;;34.50;19.63;;;3.80;99.90;;;;;;5111245;28;20074;-83
2021/03/01 02:00:30;;;;;;;33.67;19.70;;;3.70;99.90;;;;;;5110208;28;20052;-82
2021/03/01 02:03:09;;;;;;;32.15;18.90;;;3.70;99.90;;;;;;5101208;28;20119;-81
2021/03/01 02:05:37;;;;;;;31.23;17.95;;;3.70;99.90;;;;;;5100156;28;20052;-82
2021/03/01 02:08:12;;;;;;;31.90;18.13;;;3.80;99.90;;;;;;5100075;28;20044;-82
2021/03/01 02:10:45;;;;;;;34.60;18.38;;;3.80;99.90;;;;;;5101873;28;20052;-81
2021/03/01 02:13:17;;;;;;;;;;;3.80;99.90;;;;;;5102270;28;20244;-82
2021/03/01 02:15:50;;;;;;;30.20;17.95;;;3.80;99.90;;;;;;5102356;28;20326;-82
2021/03/01 02:18:16;;;;;;;29.85;17.80;;;3.80;99.90;;;;;;5101760;28;20052;-82
2021/03/01 02:20:45;;;;;;;29.95;16.75;;;3.80;99.90;;;;;;5101076;28;20426;-82
2021/03/01 02:23:22;;;;;;;30.27;18.67;;;3.80;99.90;;;;;;5101356;28;20051;-83
2021/03/01 02:25:53;;;;;;;29.85;17.02;;;3.80;99.90;;;;;;5105428;22;20688;-78
2021/03/01 02:28:21;;;;;;;29.73;17.85;;;3.80;99.90;;;;;;5061724;28;20518;-77
2021/03/01 02:30:52;;;;;;;33.40;18.95;;;3.80;99.90;;;;;;5051113;28;20080;-77
2021/03/01 02:33:22;;;;;;;30.40;18.20;;;3.70;99.90;;;;;;5053199;28;20148;-77
2021/03/01 02:35:58;;;;;;;34.42;18.50;;;3.60;99.90;;;;;;5055425;28;20056;-78
2021/03/01 02:38:29;;;;;;;32.53;19.50;;;3.60;99.90;;;;;;5055522;28;20076;-78
2021/03/01 02:40:57;;;;;;;34.38;19.27;;;3.50;99.90;;;;;;5055913;28;20135;-78
2021/03/01 02:43:26;;;;;;;34.95;19.17;;;3.60;99.90;;;;;;5055375;28;20511;-77
2021/03/01 02:45:54;;;;;;;37.83;20.38;;;3.50;99.90;;;;;;5055052;28;20136;-77
2021/03/01 02:48:21;;;;;;;34.97;19.33;;;3.50;99.90;;;;;;5055173;28;20129;-77
2021/03/01 02:50:49;;;;;;;38.95;20.20;;;3.50;99.90;;;;;;5054787;28;20130;-77
2021/03/01 02:53:17;;;;;;;37.85;20.40;;;3.50;99.90;;;;;;5054956;28;20151;-77
2021/03/01 02:55:46;;;;;;;36.95;20.70;;;3.40;99.90;;;;;;5054379;28;20131;-76
2021/03/01 02:58:13;;;;;;;37.83;21.60;;;3.40;99.90;;;;;;5054751;28;20041;-77
2021/03/01 03:00:41;;;;;;;37.63;20.67;;;3.30;99.90;;;;;;5054745;28;20518;-77
2021/03/01 03:03:09;;;;;;;45.85;23.27;;;3.30;99.90;;;;;;5054750;28;20064;-77
2021/03/01 03:05:37;;;;;;;43.78;25.00;;;3.30;99.90;;;;;;5054451;28;20048;-76
2021/03/01 03:08:06;;;;;;;46.00;24.63;;;3.30;99.90;;;;;;5054498;28;20076;-76
2021/03/01 03:10:35;;;;;;;46.97;25.38;;;3.30;99.90;;;;;;5054320;28;20076;-78
2021/03/01 03:13:04;;;;;;;48.35;27.60;;;3.20;99.90;;;;;;5054833;28;20116;-78
2021/03/01 03:15:33;;;;;;;52.60;28.02;;;3.20;99.90;;;;;;5055212;28;20049;-78
2021/03/01 03:18:01;;;;;;;53.30;27.25;;;3.20;99.90;;;;;;5055532;28;20049;-77
2021/03/01 03:20:27;;;;;;;50.22;28.05;;;3.20;99.90;;;;;;5055304;28;20095;-78
2021/03/01 03:22:53;;;;;;;50.75;26.92;;;3.10;99.90;;;;;;5055271;28;20137;-78
2021/03/01 03:25:20;;;;;;;53.10;28.80;;;3.10;99.90;;;;;;5056400;28;20131;-78
2021/03/01 03:27:46;;;;;;;50.47;30.05;;;3.10;99.90;;;;;;5054438;28;20132;-77
2021/03/01 03:30:17;;;;;;;56.70;30.30;;;3.10;99.90;;;;;;5054289;28;20056;-77
2021/03/01 03:32:44;;;;;;;55.08;29.45;;;3.10;99.90;;;;;;5054530;28;20127;-77
2021/03/01 03:35:12;;;;;;;55.83;30.17;;;3.10;99.90;;;;;;5054125;28;20427;-76
2021/03/01 03:37:44;;;;;;;56.45;29.95;;;3.00;99.90;;;;;;5053882;28;20475;-76
2021/03/01 03:40:13;;;;;;;64.85;30.98;;;3.00;99.90;;;;;;5054554;28;20141;-77
2021/03/01 03:42:40;;;;;;;56.20;30.08;;;3.00;99.90;;;;;;5054252;28;20084;-77
2021/03/01 03:45:08;;;;;;;53.40;29.10;;;3.10;99.90;;;;;;5053872;28;20140;-77
2021/03/01 03:47:36;;;;;;;61.00;30.90;;;3.00;99.90;;;;;;5053961;28;20507;-75
2021/03/01 03:50:05;;;;;;;63.65;31.90;;;3.10;99.90;;;;;;5054126;28;20149;-77
2021/03/01 03:52:38;;;;;;;65.00;32.60;;;3.00;99.90;;;;;;5054770;28;20450;-76
2021/03/01 03:55:07;;;;;;;;;;;3.00;99.90;;;;;;5056367;28;20048;-76
2021/03/01 03:57:36;;;;;;;59.55;30.88;;;2.90;99.90;;;;;;5054962;28;20055;-78
2021/03/01 04:00:06;;;;;;;61.95;32.50;;;2.90;99.90;;;;;;5055261;28;20135;-78
2021/03/01 04:02:36;;;;;;;58.50;31.02;;;2.90;99.90;;;;;;5054478;28;20044;-77
2021/03/01 04:05:04;;;;;;;61.17;32.20;;;2.90;99.90;;;;;;5053693;28;20082;-77
2021/03/01 04:07:34;;;;;;;64.43;32.55;;;2.90;99.90;;;;;;5053531;28;20061;-77
2021/03/01 04:10:02;;;;;;;63.38;33.03;;;2.90;99.90;;;;;;5054245;28;20147;-77
2021/03/01 04:12:31;;;;;;;67.93;34.50;;;2.90;99.90;;;;;;5054230;28;20482;-77
2021/03/01 04:14:59;;;;;;;59.95;31.65;;;2.90;99.90;;;;;;5053544;28;20132;-77
2021/03/01 04:17:27;;;;;;;62.10;33.38;;;2.90;99.90;;;;;;5053576;28;20157;-77
2021/03/01 04:19:57;;;;;;;61.40;32.10;;;2.90;99.90;;;;;;5053791;28;20160;-78
2021/03/01 04:22:24;;;;;;;55.03;30.45;;;2.90;99.90;;;;;;5054394;28;20132;-78
2021/03/01 04:24:53;;;;;;;64.20;31.85;;;2.90;99.90;;;;;;5053386;28;20053;-76
2021/03/01 04:27:20;;;;;;;68.63;34.25;;;2.90;99.90;;;;;;5052911;28;20087;-77
2021/03/01 04:29:47;;;;;;;72.25;33.85;;;2.80;99.90;;;;;;5053577;28;20080;-76
2021/03/01 04:32:14;;;;;;;66.57;33.53;;;2.80;99.90;;;;;;5053829;28;20132;-77
2021/03/01 04:34:41;;;;;;;70.47;34.88;;;2.80;99.90;;;;;;5053467;28;20469;-77
2021/03/01 04:37:09;;;;;;;63.30;34.58;;;2.80;99.90;;;;;;5053068;28;20131;-77
2021/03/01 04:39:35;;;;;;;67.03;33.92;;;2.80;99.90;;;;;;5053339;28;20124;-77
2021/03/01 04:42:02;;;;;;;67.85;34.45;;;2.80;99.90;;;;;;5053084;28;20503;-77
2021/03/01 04:44:30;;;;;;;61.53;34.25;;;2.80;99.90;;;;;;5053328;28;20517;-77
2021/03/01 04:46:57;;;;;;;67.38;35.78;;;2.70;99.90;;;;;;5053366;28;20107;-77
2021/03/01 04:49:24;;;;;;;72.32;36.78;;;2.70;99.90;;;;;;5053648;28;20466;-77
2021/03/01 04:51:51;;;;;;;77.63;38.60;;;2.60;99.90;;;;;;5053064;28;20083;-77
2021/03/01 04:54:20;;;;;;;74.53;37.05;;;2.60;99.90;;;;;;5053552;28;20463;-78
2021/03/01 04:56:48;;;;;;;77.65;37.38;;;2.60;99.90;;;;;;5052475;28;20139;-77
2021/03/01 04:59:18;;;;;;;70.25;36.38;;;2.60;99.90;;;;;;5053199;28;20094;-77
2021/03/01 05:01:45;;;;;;;67.22;35.97;;;2.60;99.90;;;;;;5052791;28;20132;-77
2021/03/01 05:04:12;;;;;;;71.10;36.92;;;2.60;99.90;;;;;;5052765;28;20131;-77
2021/03/01 05:06:39;;;;;;;67.03;35.80;;;2.60;99.90;;;;;;5052779;28;20482;-77
2021/03/01 05:09:07;;;;;;;76.28;36.13;;;2.60;99.90;;;;;;5052475;28;20522;-78
2021/03/01 05:11:35;;;;;;;66.82;34.28;;;2.60;99.90;;;;;;5052628;28;20127;-79
2021/03/01 05:14:03;;;;;;;67.55;35.97;;;2.50;99.90;;;;;;5052893;28;20084;-77
2021/03/01 05:16:30;;;;;;;72.88;34.95;;;2.40;99.90;;;;;;5052773;28;20128;-78
2021/03/01 05:18:57;;;;;;;69.78;34.60;;;2.40;99.90;;;;;;5054809;28;20052;-78
2021/03/01 05:21:24;;;;;;;65.13;34.17;;;2.40;99.90;;;;;;5055097;28;20131;-78
2021/03/01 05:23:51;;;;;;;71.10;34.45;;;2.30;99.90;;;;;;5054746;28;20171;-78
2021/03/01 05:26:19;;;;;;;72.32;34.75;;;2.30;99.90;;;;;;5054213;28;20681;-77
2021/03/01 05:28:47;;;;;;;70.40;34.47;;;2.30;99.90;;;;;;5055121;28;20154;-79
2021/03/01 05:31:14;;;;;;;70.88;34.17;;;2.30;99.90;;;;;;5053071;28;20045;-77
2021/03/01 05:33:41;;;;;;;72.20;34.72;;;2.20;99.90;;;;;;5052742;28;20184;-77
2021/03/01 05:36:08;;;;;;;69.60;34.97;;;2.20;99.90;;;;;;5054136;28;20072;-76
2021/03/01 05:38:34;;;;;;;65.90;34.58;;;2.20;99.90;;;;;;5053401;28;20048;-77
2021/03/01 05:41:03;;;;;;;65.30;33.85;;;2.20;99.90;;;;;;5052786;28;20617;-77
2021/03/01 05:43:30;;;;;;;64.53;31.88;;;2.20;99.90;;;;;;5052537;28;20105;-77
2021/03/01 05:45:59;;;;;;;70.82;34.20;;;2.20;99.90;;;;;;5052707;28;20086;-77
2021/03/01 05:48:27;;;;;;;70.65;34.38;;;2.10;99.90;;;;;;5053474;28;20191;-78
2021/03/01 05:50:55;;;;;;;67.55;32.83;;;2.10;99.90;;;;;;5053853;28;20102;-77
2021/03/01 05:53:25;;;;;;;69.75;34.45;;;2.10;99.90;;;;;;5055137;28;20135;-77
2021/03/01 05:55:52;;;;;;;71.50;34.88;;;2.10;99.90;;;;;;5054060;28;20139;-78
2021/03/01 05:58:20;;;;;;;67.90;32.92;;;2.10;99.90;;;;;;5054032;28;20127;-78
2021/03/01 06:00:48;;;;;;;74.07;35.30;;;2.10;99.90;;;;;;5054217;28;20103;-78
2021/03/01 06:03:16;;;;;;;68.43;33.65;;;2.10;99.90;;;;;;5053794;28;20128;-77
2021/03/01 06:05:43;;;;;;;67.38;32.65;;;2.10;99.90;;;;;;5053351;28;20136;-77
2021/03/01 06:08:10;;;;;;;69.05;33.55;;;2.10;99.90;;;;;;5055612;28;20103;-79
2021/03/01 06:10:37;;;;;;;61.33;32.53;;;2.10;99.90;;;;;;5055212;28;20135;-80
2021/03/01 06:13:04;;;;;;;67.05;32.90;;;2.10;99.90;;;;;;5056222;28;20049;-79
2021/03/01 06:15:31;;;;;;;62.28;31.42;;;2.20;99.90;;;;;;5057588;28;20049;-80
2021/03/01 06:18:08;;;;;;;68.10;33.53;;;2.10;99.90;;;;;;5056951;28;20080;-80
2021/03/01 06:20:36;;;;;;;65.78;32.95;;;2.10;99.90;;;;;;5056063;28;20084;-79
2021/03/01 06:23:03;;;;;;;68.47;33.83;;;2.10;99.90;;;;;;5057607;28;20049;-78
2021/03/01 06:25:30;;;;;;;62.28;32.22;;;2.10;99.90;;;;;;5057226;28;20077;-79
2021/03/01 06:27:57;;;;;;;63.35;33.35;;;2.10;99.90;;;;;;5055792;28;20140;-79
2021/03/01 06:31:17;;;;;;;63.38;32.92;;;2.10;99.90;;;;;;5056369;28;20471;-78
2021/03/01 06:33:43;;;;;;;64.63;31.55;;;2.10;99.90;;;;;;5057266;28;20049;-78
2021/03/01 06:36:11;;;;;;;68.53;31.42;;;2.10;99.90;;;;;;5053145;28;20128;-79
2021/03/01 06:38:39;;;;;;;60.42;31.35;;;2.10;99.90;;;;;;5053983;28;20044;-78
2021/03/01 06:41:11;;;;;;;61.50;30.35;;;2.10;99.90;;;;;;5057026;28;20049;-79
2021/03/01 06:43:39;;;;;;;58.42;30.25;;;2.10;99.90;;;;;;5071318;28;20044;-80
2021/03/01 06:46:13;;;;;;;63.08;31.05;;;2.10;99.90;;;;;;5068451;28;20076;-79
2021/03/01 06:48:41;;;;;;;64.75;31.52;;;2.10;99.90;;;;;;5056146;28;20077;-78
2021/03/01 06:51:08;;;;;;;63.05;32.17;;;2.20;99.90;;;;;;5058439;28;20160;-78
2021/03/01 06:53:37;;;;;;;68.40;33.95;;;2.30;99.90;;;;;;5064313;28;20075;-79
2021/03/01 06:56:05;;;;;;;63.63;35.67;;;2.30;99.90;;;;;;5066025;28;20047;-78
2021/03/01 06:58:36;;;;;;;64.20;34.03;;;2.50;99.90;;;;;;5076149;28;20082;-79
2021/03/01 07:01:06;;;;;;;51.10;29.08;;;2.80;99.90;;;;;;5061170;28;20418;-80
2021/03/01 07:03:33;;;;;;;46.40;24.90;;;3.20;99.90;;;;;;5063119;28;20120;-78
2021/03/01 07:06:01;;;;;;;43.03;24.63;;;3.70;99.90;;;;;;5062034;28;20135;-79
2021/03/01 07:08:37;;;;;;;43.08;23.55;;;4.10;99.90;;;;;;5063789;28;20091;-79
2021/03/01 07:11:05;;;;;;;34.47;21.90;;;4.60;99.90;;;;;;5063768;28;20083;-79
2021/03/01 07:13:33;;;;;;;38.55;23.27;;;4.90;99.90;;;;;;5063796;28;20076;-79
2021/03/01 07:16:01;;;;;;;33.22;22.15;;;5.40;99.90;;;;;;5061653;28;20088;-79
2021/03/01 07:18:29;;;;;;;33.28;20.55;;;5.70;99.90;;;;;;5061786;28;20060;-81
2021/03/01 07:20:57;;;;;;;33.08;21.60;;;6.10;99.90;;;;;;5068339;28;20115;-80
2021/03/01 07:23:26;;;;;;;32.15;21.30;;;6.50;99.90;;;;;;5068409;28;20085;-80
2021/03/01 07:25:55;;;;;;;32.65;22.02;;;6.90;99.90;;;;;;5068368;28;20083;-80
2021/03/01 07:28:22;;;;;;;29.33;20.25;;;7.30;99.90;;;;;;5068652;28;20048;-80
2021/03/01 07:30:50;;;;;;;32.35;21.52;;;7.70;99.90;;;;;;5065872;28;20073;-80
2021/03/01 07:33:17;;;;;;;28.75;19.65;;;8.00;99.90;;;;;;5058524;28;20061;-80
2021/03/01 07:35:45;;;;;;;30.35;20.90;;;8.30;99.90;;;;;;5058659;28;20052;-81
2021/03/01 07:38:12;;;;;;;30.02;19.83;;;8.60;99.90;;;;;;5061084;28;20593;-80
2021/03/01 07:40:38;;;;;;;29.83;21.75;;;8.90;99.90;;;;;;5082937;28;20059;-79
2021/03/01 07:43:07;;;;;;;31.17;22.02;;;9.20;99.90;;;;;;5072693;28;20064;-80
2021/03/01 07:45:34;;;;;;;30.38;22.13;;;9.40;99.90;;;;;;5058303;28;20049;-80
2021/03/01 07:48:12;;;;;;;31.88;22.45;;;9.70;99.90;;;;;;5057428;28;20080;-80
2021/03/01 07:50:42;;;;;;;31.85;22.35;;;9.80;99.90;;;;;;5058956;28;20085;-78
2021/03/01 07:53:49;;;;;;;29.73;21.80;;;10.00;99.90;;;;;;5065107;28;20060;-78
2021/03/01 07:56:50;;;;;;;31.67;20.35;;;10.20;99.90;;;;;;5069435;28;20067;-79
2021/03/01 07:59:38;;;;;;;30.88;21.58;;;10.40;99.90;;;;;;5077097;28;20041;-80
2021/03/01 08:02:16;;;;;;;28.98;21.45;;;10.70;99.90;;;;;;5063957;28;20431;-80
2021/03/01 08:04:42;;;;;;;26.70;20.10;;;10.70;99.90;;;;;;5074724;28;20140;-80
2021/03/01 08:07:09;;;;;;;30.55;21.40;;;10.80;99.90;;;;;;5075737;28;20072;-79
2021/03/01 08:09:53;;;;;;;27.45;19.45;;;10.80;99.90;;;;;;5075994;28;20117;-79
2021/03/01 08:12:57;;;;;;;26.80;19.83;;;10.60;99.90;;;;;;5069731;28;20475;-78
2021/03/01 08:15:35;;;;;;;29.05;20.48;;;10.10;99.90;;;;;;5009475;28;20051;-79
2021/03/01 08:18:03;;;;;;;30.92;21.55;;;9.50;99.90;;;;;;5057000;28;20136;-79
2021/03/01 08:20:47;;;;;;;29.05;20.58;;;9.10;99.90;;;;;;5073549;28;20127;-79
2021/03/01 08:23:36;;;;;;;30.30;20.75;;;8.90;99.90;;;;;;5073521;28;20048;-79
2021/03/01 08:26:07;;;;;;;28.95;20.65;;;9.20;99.90;;;;;;5077723;28;20113;-80
2021/03/01 08:28:51;;;;;;;32.13;20.45;;;9.50;99.90;;;;;;5078655;28;20565;-79
2021/03/01 08:31:39;;;;;;;27.83;20.83;;;9.20;99.90;;;;;;5075862;28;20136;-79
2021/03/01 08:34:28;;;;;;;32.42;20.35;;;8.80;99.90;;;;;;5072344;28;20044;-79
2021/03/01 08:36:56;;;;;;;29.30;19.35;;;8.50;99.90;;;;;;5074535;28;20056;-81
2021/03/01 08:39:57;;;;;;;28.15;18.40;;;9.10;99.90;;;;;;5080982;28;20059;-78
2021/03/01 08:42:44;;;;;;;32.42;18.33;;;9.20;99.90;;;;;;5073331;28;20509;-80
2021/03/01 08:45:11;;;;;;;29.00;20.00;;;8.90;99.90;;;;;;5073976;28;20189;-80
2021/03/01 08:47:50;;;;;;;26.52;17.52;;;8.70;99.90;;;;;;5075279;28;20155;-81
2021/03/01 08:50:21;;;;;;;24.05;17.42;;;8.60;99.90;;;;;;5073787;28;20053;-78
2021/03/01 08:52:49;;;;;;;23.48;16.38;;;8.90;99.90;;;;;;5072920;28;20080;-78
2021/03/01 08:55:17;;;;;;;24.10;16.38;;;9.10;99.90;;;;;;5056390;28;20138;-78
2021/03/01 08:58:04;;;;;;;22.40;16.88;;;9.50;99.90;;;;;;5073648;28;20582;-78
2021/03/01 09:00:32;;;;;;;24.13;17.77;;;9.50;99.90;;;;;;5072456;28;20123;-79
2021/03/01 09:03:22;;;;;;;26.45;16.88;;;9.70;99.90;;;;;;5075033;28;20291;-79
2021/03/01 09:05:50;;;;;;;25.42;17.58;;;9.90;99.90;;;;;;5075858;28;20133;-79
2021/03/01 09:08:27;;;;;;;25.42;16.13;;;10.00;99.90;;;;;;5075158;28;20049;-79
2021/03/01 09:10:54;;;;;;;23.35;16.50;;;10.00;99.90;;;;;;5076176;28;20045;-80
2021/03/01 09:13:24;;;;;;;23.52;16.40;;;9.90;99.90;;;;;;5074975;28;20473;-80
2021/03/01 09:15:51;;;;;;;25.23;17.10;;;9.80;99.90;;;;;;5075081;28;20407;-79
2021/03/01 09:18:19;;;;;;;24.00;15.55;;;9.40;99.90;;;;;;5074725;28;20537;-80
2021/03/01 09:20:52;;;;;;;21.60;15.77;;;9.00;99.90;;;;;;5075245;28;20084;-79
2021/03/01 09:23:31;;;;;;;;;;;8.70;99.90;;;;;;5074514;28;20417;-80
2021/03/01 09:25:57;;;;;;;23.10;15.15;;;8.30;99.90;;;;;;5073722;28;19971;-80
2021/03/01 09:28:29;;;;;;;24.27;15.50;;;8.20;99.90;;;;;;5073899;28;20608;-79
2021/03/01 09:31:04;;;;;;;26.75;14.98;;;8.10;99.90;;;;;;5072544;28;20106;-79
2021/03/01 09:33:31;;;;;;;24.35;14.60;;;8.00;99.90;;;;;;5071328;28;20352;-79
2021/03/01 09:35:59;;;;;;;28.67;15.63;;;7.90;99.90;;;;;;5070825;28;20594;-78
2021/03/01 09:38:28;;;;;;;22.80;15.02;;;7.90;99.90;;;;;;5072761;28;20044;-79
2021/03/01 09:41:03;;;;;;;23.02;16.30;;;7.90;99.90;;;;;;5074193;28;20055;-77
2021/03/01 09:43:29;;;;;;;30.15;16.70;;;7.90;99.90;;;;;;5071356;28;20094;-78
2021/03/01 09:45:57;;;;;;;23.70;15.82;;;8.00;99.90;;;;;;5072242;28;20128;-79
2021/03/01 09:48:24;;;;;;;23.10;15.60;;;8.00;99.90;;;;;;5074367;28;20395;-79
2021/03/01 09:50:52;;;;;;;26.20;14.88;;;8.10;99.90;;;;;;5073615;28;20526;-80
2021/03/01 09:53:20;;;;;;;20.05;14.52;;;8.10;99.90;;;;;;5076290;28;20358;-80
2021/03/01 09:55:50;;;;;;;25.33;15.20;;;8.10;99.90;;;;;;5076075;28;20044;-79
2021/03/01 09:58:32;;;;;;;23.33;14.82;;;8.20;99.90;;;;;;5078337;28;20131;-80
2021/03/01 10:01:10;;;;;;;22.17;15.40;;;8.20;99.90;;;;;;5068764;28;20133;-81
2021/03/01 10:03:41;;;;;;;26.30;16.13;;;8.20;99.90;;;;;;5056266;28;20056;-81
2021/03/01 10:06:10;;;;;;;23.73;15.63;;;8.20;99.90;;;;;;5058749;28;20072;-80
2021/03/01 10:08:38;;;;;;;23.73;15.05;;;8.30;99.90;;;;;;5057444;28;20134;-80
2021/03/01 10:11:05;;;;;;;25.88;14.90;;;8.30;99.90;;;;;;5056066;28;20495;-79
2021/03/01 10:13:33;;;;;;;26.58;14.90;;;8.40;99.90;;;;;;5050839;28;20095;-79
2021/03/01 10:16:01;;;;;;;22.77;15.35;;;8.40;99.90;;;;;;5056252;28;20466;-80
2021/03/01 10:18:30;;;;;;;25.77;15.57;;;8.30;99.90;;;;;;5056928;28;20045;-80
2021/03/01 10:21:02;;;;;;;25.42;16.10;;;8.40;99.90;;;;;;5058072;28;20080;-79
2021/03/01 10:23:35;;;;;;;28.63;15.15;;;8.40;99.90;;;;;;5054600;28;20083;-79
2021/03/01 10:26:16;;;;;;;24.73;14.48;;;8.50;99.90;;;;;;5053685;28;20135;-79
2021/03/01 10:28:55;;;;;;;19.27;14.30;;;8.70;99.90;;;;;;5054821;28;20460;-79
2021/03/01 10:31:23;;;;;;;21.90;15.13;;;8.80;99.90;;;;;;5062006;28;20057;-79
2021/03/01 10:33:54;;;;;;;22.90;14.75;;;8.90;99.90;;;;;;5074580;28;20052;-80
2021/03/01 10:36:21;;;;;;;24.83;14.50;;;9.10;99.90;;;;;;5079673;28;20055;-80
2021/03/01 10:39:15;;;;;;;21.05;14.18;;;9.10;99.90;;;;;;5075126;28;20367;-79
2021/03/01 10:41:43;;;;;;;23.75;14.50;;;9.20;99.90;;;;;;5068042;28;20133;-79
2021/03/01 10:44:10;;;;;;;20.05;13.82;;;9.30;99.90;;;;;;5073216;28;20135;-79
2021/03/01 10:46:43;;;;;;;21.77;13.60;;;9.40;99.90;;;;;;5075007;28;20101;-79
2021/03/01 10:49:16;;;;;;;;;;;9.50;99.90;;;;;;5075439;28;20490;-79
2021/03/01 10:51:43;;;;;;;20.23;13.52;;;9.50;99.90;;;;;;5074343;28;20293;-80
2021/03/01 10:54:11;;;;;;;23.65;14.70;;;9.60;99.90;;;;;;5073024;28;20055;-79
2021/03/01 10:56:37;;;;;;;18.65;13.57;;;9.80;99.90;;;;;;5074787;28;20080;-79
2021/03/01 10:59:04;;;;;;;21.15;13.35;;;9.90;99.90;;;;;;5059400;28;20092;-80
2021/03/01 11:01:32;;;;;;;20.30;14.23;;;9.80;99.90;;;;;;5059018;28;20534;-79
2021/03/01 11:03:59;;;;;;;18.42;13.38;;;9.80;99.90;;;;;;5058658;28;20049;-79
2021/03/01 11:06:26;;;;;;;21.15;13.80;;;10.00;99.90;;;;;;5057842;28;20069;-80
2021/03/01 11:08:52;;;;;;;21.50;13.60;;;10.10;99.90;;;;;;5058196;28;20073;-80
2021/03/01 11:11:20;;;;;;;23.27;13.65;;;10.20;99.90;;;;;;5060202;28;20080;-80
2021/03/01 11:13:46;;;;;;;22.42;13.13;;;10.30;99.90;;;;;;5060441;28;20053;-79
2021/03/01 11:16:12;;;;;;;20.35;13.27;;;10.30;99.90;;;;;;5060384;28;20076;-79
2021/03/01 11:18:39;;;;;;;19.20;12.93;;;10.30;99.90;;;;;;5059490;28;20049;-79
2021/03/01 11:21:05;;;;;;;18.73;12.65;;;10.40;99.90;;;;;;5058286;28;20080;-79
2021/03/01 11:23:32;;;;;;;19.10;12.43;;;10.60;99.90;;;;;;5056287;28;20084;-79
2021/03/01 11:25:58;;;;;;;21.02;13.13;;;10.70;99.90;;;;;;5057567;28;20572;-79
2021/03/01 11:28:26;;;;;;;17.23;13.18;;;10.80;99.90;;;;;;5058075;28;20092;-79
2021/03/01 11:30:53;;;;;;;18.55;12.65;;;11.00;99.90;;;;;;5060314;28;20115;-81
2021/03/01 11:33:20;;;;;;;18.73;12.55;;;11.10;99.90;;;;;;5059593;28;20088;-80
2021/03/01 11:35:48;;;;;;;22.05;12.07;;;11.30;99.90;;;;;;5060393;28;20080;-80
2021/03/01 11:38:15;;;;;;;18.73;13.27;;;11.30;99.90;;;;;;5060322;28;20074;-80
2021/03/01 11:40:41;;;;;;;22.88;11.52;;;11.40;99.90;;;;;;5060101;28;20507;-80
2021/03/01 11:43:08;;;;;;;22.13;11.93;;;11.60;99.90;;;;;;5058141;28;20491;-80
2021/03/01 11:45:35;;;;;;;18.02;12.02;;;11.70;99.90;;;;;;5057521;28;20054;-79
2021/03/01 11:48:01;;;;;;;23.00;13.10;;;11.70;99.90;;;;;;5058010;28;20088;-80
2021/03/01 11:50:28;;;;;;;17.70;12.02;;;11.90;99.90;;;;;;5058638;28;20423;-80
2021/03/01 11:52:55;;;;;;;21.90;12.63;;;11.90;99.90;;;;;;5063471;28;20120;-80
2021/03/01 11:55:22;;;;;;;15.00;10.55;;;11.90;99.90;;;;;;5058893;28;20062;-80
2021/03/01 11:57:50;;;;;;;17.27;11.60;;;12.00;99.90;;;;;;5060840;28;20049;-80
2021/03/01 12:00:18;;;;;;;19.85;10.93;;;12.00;99.90;;;;;;5060019;28;20052;-80
2021/03/01 12:02:46;;;;;;;16.95;10.63;;;12.10;99.90;;;;;;5058695;28;20045;-80
2021/03/01 12:05:14;;;;;;;14.82;10.25;;;12.20;99.90;;;;;;5057353;28;20052;-80
2021/03/01 12:07:40;;;;;;;16.90;10.48;;;12.30;99.90;;;;;;5058298;28;20468;-80
2021/03/01 12:10:08;;;;;;;16.30;9.85;;;12.30;99.90;;;;;;5057923;28;20044;-79
2021/03/01 12:12:34;;;;;;;17.00;9.77;;;12.40;99.90;;;;;;5056880;28;20055;-79
2021/03/01 12:15:01;;;;;;;14.52;10.13;;;12.50;99.90;;;;;;5056909;28;20527;-79
2021/03/01 12:17:28;;;;;;;17.30;10.27;;;12.50;99.90;;;;;;5056849;28;20124;-79
2021/03/01 12:19:55;;;;;;;13.50;9.32;;;12.50;99.90;;;;;;5056898;28;20049;-79
2021/03/01 12:22:22;;;;;;;14.40;9.48;;;12.60;99.90;;;;;;5057443;28;20102;-79
2021/03/01 12:24:48;;;;;;;15.10;9.73;;;12.70;99.90;;;;;;5058237;28;20507;-81
2021/03/01 12:27:15;;;;;;;13.02;9.30;;;12.70;99.90;;;;;;5057179;28;20431;-81
2021/03/01 12:29:41;;;;;;;14.73;9.57;;;12.70;99.90;;;;;;5056365;28;20080;-80
2021/03/01 12:32:08;;;;;;;14.60;9.48;;;12.80;99.90;;;;;;5058228;28;20084;-79
2021/03/01 12:34:37;;;;;;;17.15;9.73;;;12.80;99.90;;;;;;5062651;28;20044;-80
2021/03/01 12:37:05;;;;;;;14.23;9.27;;;12.90;99.90;;;;;;5078583;28;20472;-80
2021/03/01 12:39:31;;;;;;;13.55;9.40;;;12.90;99.90;;;;;;5077006;28;20523;-80
2021/03/01 12:41:58;;;;;;;14.27;9.35;;;13.00;99.90;;;;;;5079387;28;20464;-79
2021/03/01 12:44:24;;;;;;;15.85;9.52;;;13.10;99.90;;;;;;5078120;28;20068;-80
2021/03/01 12:46:51;;;;;;;14.88;9.02;;;13.10;99.90;;;;;;5077412;28;20091;-80
2021/03/01 12:49:17;;;;;;;13.27;8.93;;;13.10;99.90;;;;;;5076916;28;20055;-80
2021/03/01 12:51:44;;;;;;;16.85;8.85;;;13.10;99.90;;;;;;5077915;28;20080;-79
2021/03/01 12:54:11;;;;;;;13.00;8.68;;;13.10;99.90;;;;;;5081483;28;20044;-79
2021/03/01 12:56:37;;;;;;;16.08;8.80;;;13.30;99.90;;;;;;5075717;28;20451;-80
2021/03/01 12:59:04;;;;;;;15.52;9.45;;;13.30;99.90;;;;;;5077506;28;20080;-79
2021/03/01 13:01:30;;;;;;;15.90;9.70;;;13.40;99.90;;;;;;5078818;28;20078;-80